Cape York — VRXE9 — position and weather

sailwx.info

Track history (hours):
 
Tides and Currents Weather Stations Pressure Air Temp Water Temp Dewpoint Dewpoint Depression Visibility Wind Speed Wind Dir Waves Ship Positions

Cape York

Last reported at 2017-Aug-03 04:54 UTC. Time now 2017-Aug-20 02:05 UTC.
Position S 25°31' W 047°00'.
Warning: this ship's position is 16 days out of date.

Length 170 m; draft 6.3 m.

Type: Cargo ship. MMSI: 477924000.

Date/timePositionNaut miles runAvg speedWind from/ knotsBaromVisibWave heightAir tempDewpointWater temp
2017-Aug-03 04:54S 25°31' W 047°00'913.3
2017-Aug-03 04:13S 25°23' W 046°56'313.2
2017-Aug-03 03:59S 25°20' W 046°55'613.1
2017-Aug-03 03:30S 25°14' W 046°53'713.1
2017-Aug-03 03:00S 25°08' W 046°50'713.1
2017-Aug-03 02:30S 25°02' W 046°47'713.1
2017-Aug-03 02:00S 24°55' W 046°45'713.1
2017-Aug-03 01:30S 24°49' W 046°42'613.0
2017-Aug-03 01:00S 24°43' W 046°39'713.0
2017-Aug-03 00:30S 24°37' W 046°37'613.0
2017-Aug-03 00:00S 24°31' W 046°34'612.9
2017-Aug-02 23:30S 24°25' W 046°31'612.8
2017-Aug-02 23:00S 24°19' W 046°29'612.8
2017-Aug-02 22:30S 24°13' W 046°26'612.7
2017-Aug-02 22:00S 24°08' W 046°23'711.3
2017-Aug-02 21:23S 24°01' W 046°21'3 7.7
2017-Aug-02 20:58S 23°59' W 046°18'  
Track history (hours):
 
Tides and Currents Weather Stations Pressure Air Temp Water Temp Dewpoint Dewpoint Depression Visibility Wind Speed Wind Dir Waves Ship Positions

Cape York

Last reported at 2017-Aug-03 04:54 UTC. Time now 2017-Aug-20 02:05 UTC.
Position S 25°31' W 047°00'.
Warning: this ship's position is 16 days out of date.

Length 170 m; draft 6.3 m.

Type: Cargo ship. MMSI: 477924000.

Date/timePositionNaut miles runAvg speedWind from/ knotsBaromVisibWave heightAir tempDewpointWater temp
2017-Aug-03 04:54S 25°31' W 047°00'913.3
2017-Aug-03 04:13S 25°23' W 046°56'313.2
2017-Aug-03 03:59S 25°20' W 046°55'613.1
2017-Aug-03 03:30S 25°14' W 046°53'713.1
2017-Aug-03 03:00S 25°08' W 046°50'713.1
2017-Aug-03 02:30S 25°02' W 046°47'713.1
2017-Aug-03 02:00S 24°55' W 046°45'713.1
2017-Aug-03 01:30S 24°49' W 046°42'613.0
2017-Aug-03 01:00S 24°43' W 046°39'713.0
2017-Aug-03 00:30S 24°37' W 046°37'613.0
2017-Aug-03 00:00S 24°31' W 046°34'612.9
2017-Aug-02 23:30S 24°25' W 046°31'612.8
2017-Aug-02 23:00S 24°19' W 046°29'612.8
2017-Aug-02 22:30S 24°13' W 046°26'612.7
2017-Aug-02 22:00S 24°08' W 046°23'711.3
2017-Aug-02 21:23S 24°01' W 046°21'3 7.7
2017-Aug-02 20:58S 23°59' W 046°18'  

Dump ship's entire track history